• Join FlightAware (Why Join?)
  • Login
  • US Flag 
10:52AM EDT


 

Airport Tracker/Info


-or-


 

Live Flight TrackerFlight Track Log ✈ SWA655 ✈ 08-Apr-2013 ✈ KLAS - KMCO

Flight Track Log - Related Links

Times and Time Zones

All times are in EDT time to prevent confusion due to time zone crossing. See the SWA655 flight status page for this flight to view local times or setup timezone preferences in your user account.

Time Position Orientation Groundspeed Altitude Reporting Facility
EDT Latitude Longitude Course Direction KTS MPH feet Rate Location/Type
09:43PM 36.1122 -115.1456 57° Northeast 172 198 3,300  Level Los Angeles Center
09:43PM 36.1289 -115.1136 57° Northeast 206 237 4,100 1,740 Climbing Los Angeles Center
09:44PM 36.1367 -115.0392 83° East 240 276 6,000 1,860 Climbing Los Angeles Center
09:45PM 36.1400 -115.0058 83° East 245 282 6,800 2,940 Climbing Los Angeles Center
09:45PM 36.1469 -114.9583 80° East 285 328 8,700 3,780 Climbing Los Angeles Center
09:46PM 36.1383 -114.8864 98° East 294 338 10,700 2,340 Climbing Los Angeles Center
09:46PM 36.1228 -114.8386 112° Southeast 333 383 11,300 2,100 Climbing Los Angeles Center
09:47PM 36.1022 -114.7756 112° Southeast 347 399 12,900 2,880 Climbing Los Angeles Center
09:48PM 36.0617 -114.6578 113° Southeast 368 423 15,900 2,940 Climbing Los Angeles Center
09:49PM 36.0236 -114.5378 111° Southeast 375 432 19,000 2,580 Climbing Los Angeles Center
09:50PM 35.9964 -114.4089 105° East 388 447 21,200 2,100 Climbing Los Angeles Center
09:51PM 35.9767 -114.2731 100° East 402 463 23,400 2,040 Climbing Los Angeles Center
09:52PM 35.9581 -114.1361 99° East 405 466 25,500 1,860 Climbing Los Angeles Center
09:53PM 35.9375 -113.9958 100° East 414 476 27,300 1,560 Climbing Los Angeles Center
09:54PM 35.9106 -113.8236 101° East 425 489 28,700 1,200 Climbing Los Angeles Center
09:55PM 35.8875 -113.6708 101° East 449 517 29,800 780 Climbing Los Angeles Center
09:56PM 35.8631 -113.5236 102° East 464 534 30,400 780 Climbing Los Angeles Center
09:57PM 35.8372 -113.3589 101° East 484 557 31,500 1,260 Climbing Los Angeles Center
09:58PM 35.8111 -113.1956 101° East 486 559 33,000 720 Climbing Los Angeles Center
09:59PM 35.7839 -113.0331 102° East 483 556 33,000  Level Los Angeles Center
10:00PM 35.7575 -112.8697 101° East 485 558 33,000  Level Los Angeles Center
10:01PM 35.7253 -112.6769 102° East 479 551 33,000  Level Los Angeles Center
10:02PM 35.6986 -112.5161 101° East 478 550 33,000  Level Los Angeles Center
10:03PM 35.6708 -112.3542 102° East 483 556 33,000  Level Los Angeles Center
10:04PM 35.6431 -112.1922 102° East 484 557 33,000  Level Los Angeles Center
10:05PM 35.6203 -112.0631 102° East 481 554 33,000  Level Albuquerque Center
10:06PM 35.5925 -111.9025 102° East 481 554 33,000  Level Albuquerque Center
10:07PM 35.5889 -111.7386 92° East 483 556 33,000  Level Albuquerque Center
10:08PM 35.5822 -111.5750 93° East 481 554 33,000  Level Albuquerque Center
10:09PM 35.5769 -111.3925 92° East 477 549 33,000  Level Albuquerque Center
10:10PM 35.5725 -111.2364 92° East 478 550 33,000  Level Albuquerque Center
10:11PM 35.5667 -111.0519 92° East 482 555 33,000  Level Albuquerque Center
10:12PM 35.5597 -110.8939 93° East 485 558 33,000  Level Albuquerque Center
10:13PM 35.5544 -110.7372 92° East 481 554 33,100 600 Climbing Albuquerque Center
10:14PM 35.5481 -110.5503 92° East 488 562 34,300 1,080 Climbing Albuquerque Center
10:15PM 35.5419 -110.3889 93° East 494 568 35,300 1,020 Climbing Albuquerque Center
10:16PM 35.5353 -110.2008 92° East 494 568 36,400 780 Climbing Albuquerque Center
10:17PM 35.5283 -110.0397 93° East 495 570 37,000 240 Climbing Albuquerque Center
10:18PM 35.5222 -109.8825 93° East 488 562 37,000  Level Albuquerque Center
10:19PM 35.5153 -109.6997 93° East 484 557 37,000  Level Albuquerque Center
10:20PM 35.5083 -109.5411 93° East 486 559 37,000  Level Albuquerque Center
10:21PM 35.4964 -109.3561 94° East 488 562 37,000  Level Albuquerque Center
10:22PM 35.4853 -109.1981 95° East 488 562 37,000  Level Albuquerque Center
10:23PM 35.4750 -109.0428 95° East 484 557 37,000  Level Albuquerque Center
10:24PM 35.4614 -108.8625 95° East 480 552 37,000  Level Albuquerque Center
10:25PM 35.4508 -108.7050 95° East 484 557 37,000  Level Albuquerque Center
10:26PM 35.4372 -108.5211 95° East 486 559 37,000  Level Albuquerque Center
10:27PM 35.4258 -108.3644 95° East 485 558 37,000  Level Albuquerque Center
10:28PM 35.4136 -108.2081 95° East 484 557 37,000  Level Albuquerque Center
10:30PM 35.3997 -108.0250 95° East 484 557 37,000  Level Albuquerque Center
10:31PM 35.3872 -107.8675 96° East 486 559 37,000  Level Albuquerque Center
10:32PM 35.3719 -107.6856 96° East 483 556 37,000  Level Albuquerque Center
10:33PM 35.3583 -107.5289 96° East 483 556 37,000  Level Albuquerque Center
10:34PM 35.3444 -107.3619 96° East 484 557 37,000  Level Albuquerque Center
10:35PM 35.3297 -107.1972 96° East 485 558 37,000  Level Albuquerque Center
10:36PM 35.3153 -107.0342 96° East 477 549 37,000  Level Albuquerque Center
10:37PM 35.2994 -106.8553 96° East 470 541 37,000  Level Albuquerque Center
10:38PM 35.2892 -106.7017 95° East 472 543 37,000  Level Albuquerque Center
10:39PM 35.2753 -106.5489 96° East 472 543 37,000  Level Albuquerque Center
10:40PM 35.2567 -106.3856 98° East 475 547 37,000  Level Albuquerque Center
10:41PM 35.2428 -106.2261 96° East 472 543 37,000  Level Albuquerque Center
10:42PM 35.2244 -106.0586 98° East 466 536 37,000  Level Albuquerque Center
10:43PM 35.2086 -105.8992 97° East 468 539 37,000  Level Albuquerque Center
10:44PM 35.1947 -105.7381 96° East 472 543 37,000  Level Albuquerque Center
10:45PM 35.1814 -105.5792 96° East 468 539 37,000  Level Albuquerque Center
10:46PM 35.1639 -105.4200 98° East 469 540 37,000  Level Albuquerque Center
10:47PM 35.1483 -105.2594 97° East 472 543 37,000  Level Albuquerque Center
10:48PM 35.1275 -105.0728 98° East 473 544 37,000  Level Albuquerque Center
10:49PM 35.1117 -104.9150 97° East 468 539 37,000  Level Albuquerque Center
10:50PM 35.0950 -104.7581 97° East 465 535 37,000  Level Albuquerque Center
10:51PM 35.0781 -104.6011 97° East 465 535 37,000  Level Albuquerque Center
10:52PM 35.0611 -104.4439 97° East 466 536 37,000  Level Albuquerque Center
10:53PM 35.0428 -104.2842 98° East 475 547 37,000  Level Albuquerque Center
10:55PM 35.0078 -103.9619 97° East 482 555 37,000  Level Albuquerque Center
10:56PM 34.9892 -103.8008 98° East 480 552 37,000  Level Albuquerque Center
10:57PM 34.9686 -103.6122 98° East 479 551 37,000  Level Albuquerque Center
10:58PM 34.9492 -103.4500 98° East 480 552 37,000  Level Albuquerque Center
10:59PM 34.9297 -103.2889 98° East 478 550 37,000  Level Albuquerque Center
11:00PM 34.9108 -103.1272 98° East 478 550 37,000  Level Albuquerque Center
11:01PM 34.8914 -102.9653 98° East 479 551 37,000  Level Albuquerque Center
11:02PM 34.8711 -102.8028 99° East 480 552 37,000  Level Albuquerque Center
11:03PM 34.8514 -102.6442 99° East 484 557 37,000  Level Albuquerque Center
11:04PM 34.8306 -102.4828 99° East 485 558 37,000  Level Albuquerque Center
11:05PM 34.8106 -102.3225 99° East 483 556 37,000  Level Albuquerque Center
11:06PM 34.7903 -102.1631 99° East 482 555 37,000  Level Albuquerque Center
11:07PM 34.7656 -101.9725 99° East 480 552 37,000  Level Albuquerque Center
11:08PM 34.7444 -101.8128 99° East 483 556 37,000  Level Albuquerque Center
11:09PM 34.7236 -101.6528 99° East 483 556 37,000  Level Albuquerque Center
11:10PM 34.7025 -101.4942 99° East 483 556 37,000  Level Albuquerque Center
11:11PM 34.6806 -101.3350 99° East 481 554 37,000  Level Albuquerque Center
11:12PM 34.6597 -101.1781 99° East 477 549 37,000  Level Albuquerque Center
11:13PM 34.6386 -101.0211 99° East 475 547 37,000  Level Albuquerque Center
11:14PM 34.6125 -100.8336 100° East 473 544 37,000  Level Albuquerque Center
11:15PM 34.5903 -100.6775 100° East 472 543 37,000  Level Albuquerque Center
11:16PM 34.5686 -100.5206 99° East 473 544 37,100 540 Climbing Albuquerque Center
11:18PM 34.5453 -100.3636 100° East 475 547 38,100 900 Climbing Albuquerque Center
11:19PM 34.5225 -100.2072 100° East 474 545 39,000 420 Climbing Albuquerque Center
11:20PM 34.4975 -100.0322 100° East 473 544 39,000  Level Albuquerque Center
11:20PM 34.4931 -99.9936 98° East 469 540 39,000  Level Fort Worth Center
11:21PM 34.4692 -99.8342 100° East 469 540 39,000  Level Fort Worth Center
11:22PM 34.4428 -99.6797 102° East 474 545 39,000  Level Fort Worth Center
11:23PM 34.4186 -99.5156 100° East 474 545 39,000  Level Fort Worth Center
11:24PM 34.3939 -99.3589 101° East 474 545 39,000  Level Fort Worth Center
11:25PM 34.3692 -99.1972 100° East 474 545 39,000  Level Fort Worth Center
11:26PM 34.3481 -99.0611 101° East 465 535 39,000  Level Fort Worth Center
11:27PM 34.3208 -98.9022 102° East 465 535 39,000  Level Fort Worth Center
11:28PM 34.2997 -98.7433 99° East 470 541 39,000  Level Fort Worth Center
11:29PM 34.2742 -98.5872 101° East 470 541 39,000  Level Fort Worth Center
11:30PM 34.2486 -98.4261 101° East 470 541 39,000  Level Fort Worth Center
11:31PM 34.2206 -98.2700 102° East 470 541 39,000  Level Fort Worth Center
11:32PM 34.1944 -98.1089 101° East 475 547 39,000  Level Fort Worth Center
11:33PM 34.1700 -97.9556 101° East 475 547 39,000  Level Fort Worth Center
11:34PM 34.1436 -97.8000 102° East 470 541 39,000  Level Fort Worth Center
11:35PM 34.1167 -97.6417 102° East 470 541 39,000  Level Fort Worth Center
11:36PM 34.0939 -97.4811 100° East 470 541 39,000  Level Fort Worth Center
11:37PM 34.0689 -97.3258 101° East 482 555 39,000  Level Fort Worth Center
11:38PM 34.0417 -97.1678 102° East 482 555 39,000  Level Fort Worth Center
11:39PM 34.0119 -96.9925 102° East 488 562 39,000  Level Fort Worth Center
11:40PM 33.9842 -96.8350 102° East 482 555 39,000  Level Fort Worth Center
11:41PM 33.9564 -96.6797 102° East 477 549 39,000  Level Fort Worth Center
11:42PM 33.9303 -96.5272 102° East 470 541 39,000  Level Fort Worth Center
11:43PM 33.9042 -96.3775 102° East 470 541 39,000  Level Fort Worth Center
11:44PM 33.8756 -96.2203 102° East 470 541 39,000  Level Fort Worth Center
11:45PM 33.8469 -96.0681 103° East 470 541 39,000  Level Fort Worth Center
11:46PM 33.8200 -95.9158 102° East 465 535 39,000  Level Fort Worth Center
11:47PM 33.7933 -95.7789 103° East 471 542 39,000  Level Fort Worth Center
11:48PM 33.7619 -95.6219 103° East 476 548 39,000  Level Fort Worth Center
11:49PM 33.7303 -95.4553 103° East 471 542 39,000  Level Fort Worth Center
11:50PM 33.7006 -95.3011 103° East 471 542 39,000  Level Fort Worth Center
11:51PM 33.6708 -95.1497 103° East 471 542 39,000  Level Fort Worth Center
11:52PM 33.6431 -94.9933 102° East 471 542 39,000  Level Fort Worth Center
11:53PM 33.6147 -94.8344 102° East 471 542 39,000  Level Fort Worth Center
11:54PM 33.5844 -94.6808 103° East 476 548 39,000  Level Fort Worth Center
11:55PM 33.5536 -94.5247 103° East 476 548 39,000  Level Fort Worth Center
11:56PM 33.5228 -94.3661 103° East 476 548 39,000  Level Fort Worth Center
11:57PM 33.4939 -94.2128 103° East 476 548 39,000  Level Fort Worth Center
11:58PM 33.4675 -94.0767 103° East 471 542 39,000  Level Fort Worth Center
11:59PM 33.4336 -93.9064 103° East 471 542 39,000  Level Fort Worth Center
12:00AM 33.4044 -93.7633 104° East 481 554 39,000  Level Fort Worth Center
12:01AM 33.3606 -93.6133 109° East 487 560 39,000  Level Fort Worth Center
12:02AM 33.3119 -93.4639 111° Southeast 479 551 39,000  Level Fort Worth Center
12:03AM 33.2611 -93.3069 111° Southeast 474 545 39,000  Level Fort Worth Center
12:04AM 33.2147 -93.1653 111° Southeast 468 539 39,000  Level Fort Worth Center
12:05AM 33.1678 -93.0211 111° Southeast 468 539 39,000  Level Fort Worth Center
12:06AM 33.1211 -92.8769 111° Southeast 468 539 39,000  Level Fort Worth Center
12:07AM 33.0742 -92.7381 112° Southeast 468 539 39,000  Level Fort Worth Center
12:08AM 33.0311 -92.5942 110° East 468 539 39,000  Level Fort Worth Center
12:09AM 32.9839 -92.4533 112° Southeast 468 539 39,000  Level Fort Worth Center
12:10AM 32.9064 -92.2336 113° Southeast 471 542 39,000  Level Houston Center
12:11AM 32.9006 -92.2056 104° East 464 534 39,000  Level Memphis Center
12:12AM 32.8503 -92.0661 113° Southeast 464 534 39,000  Level Memphis Center
12:13AM 32.7978 -91.9217 113° Southeast 464 534 39,000  Level Memphis Center
12:14AM 32.7517 -91.7750 110° East 464 534 39,000  Level Memphis Center
12:15AM 32.6989 -91.6311 114° Southeast 469 540 39,000  Level Memphis Center
12:16AM 32.6503 -91.4872 112° Southeast 469 540 39,000  Level Memphis Center
12:17AM 32.6014 -91.3411 112° Southeast 469 540 39,000  Level Memphis Center
12:18AM 32.5503 -91.1978 113° Southeast 469 540 39,000  Level Memphis Center
12:19AM 32.4989 -91.0494 112° Southeast 476 548 39,000  Level Memphis Center
12:20AM 32.4494 -90.9039 112° Southeast 476 548 39,000  Level Memphis Center
12:21AM 32.3917 -90.7436 113° Southeast 476 548 39,000  Level Memphis Center
12:22AM 32.3419 -90.5983 112° Southeast 476 548 39,000  Level Memphis Center
12:23AM 32.2919 -90.4531 112° Southeast 476 548 39,000  Level Memphis Center
12:24AM 32.2397 -90.3106 113° Southeast 476 548 39,000  Level Memphis Center
12:25AM 32.1894 -90.1658 112° Southeast 476 548 39,000  Level Memphis Center
12:26AM 32.1392 -90.0236 113° Southeast 476 548 39,000  Level Memphis Center
12:27AM 32.0886 -89.8792 112° Southeast 476 548 39,000  Level Memphis Center
12:28AM 32.0358 -89.7397 114° Southeast 470 541 39,000  Level Memphis Center
12:29AM 31.9494 -89.4981 113° Southeast 475 547 39,000  Level Houston Center
12:31AM 31.8969 -89.3550 113° Southeast 476 548 39,000  Level Houston Center
12:32AM 31.8453 -89.2133 113° Southeast 472 543 39,000  Level Houston Center
12:33AM 31.7928 -89.0706 113° Southeast 474 545 39,000  Level Houston Center
12:34AM 31.7400 -88.9269 113° Southeast 477 549 39,000  Level Houston Center
12:35AM 31.6861 -88.7836 114° Southeast 479 551 39,000  Level Houston Center
12:36AM 31.6344 -88.6417 113° Southeast 476 548 39,000  Level Houston Center
12:37AM 31.5708 -88.4722 114° Southeast 472 543 39,000  Level Houston Center
12:38AM 31.5175 -88.3272 113° Southeast 479 551 39,000  Level Houston Center
12:39AM 31.4642 -88.1869 114° Southeast 470 541 39,000  Level Houston Center
12:40AM 31.4222 -88.0736 113° Southeast 470 541 39,000  Level Houston Center
12:41AM 31.3686 -87.9325 114° Southeast 470 541 39,000  Level Houston Center
12:42AM 31.3142 -87.7939 115° Southeast 468 539 39,000  Level Houston Center
12:43AM 31.2617 -87.6542 114° Southeast 467 537 39,000  Level Houston Center
12:44AM 31.2078 -87.5164 115° Southeast 466 536 39,000  Level Houston Center
12:45AM 31.1531 -87.3764 115° Southeast 473 544 39,000  Level Houston Center
12:45AM 31.1197 -87.2869 114° Southeast 470 541 39,000  Level Jacksonville Center
12:46AM 31.0639 -87.1486 115° Southeast 470 541 39,000  Level Jacksonville Center
12:47AM 31.0100 -87.0081 114° Southeast 470 541 39,000  Level Jacksonville Center
12:48AM 30.9539 -86.8700 115° Southeast 470 541 39,000  Level Jacksonville Center
12:49AM 30.8994 -86.7347 115° Southeast 470 541 39,000  Level Jacksonville Center
12:50AM 30.8392 -86.5942 117° Southeast 475 547 39,000  Level Jacksonville Center
12:51AM 30.7825 -86.4567 116° Southeast 475 547 39,000  Level Jacksonville Center
12:52AM 30.7256 -86.3192 116° Southeast 475 547 39,000  Level Jacksonville Center
12:53AM 30.6689 -86.1794 115° Southeast 470 541 39,000  Level Jacksonville Center
12:54AM 30.6078 -86.0303 115° Southeast 465 535 39,000  Level Jacksonville Center
12:55AM 30.5506 -85.8908 115° Southeast 465 535 39,000  Level Jacksonville Center
12:56AM 30.4911 -85.7517 116° Southeast 471 542 39,000  Level Jacksonville Center
12:57AM 30.4336 -85.6125 116° Southeast 471 542 39,000  Level Jacksonville Center
12:58AM 30.3742 -85.4711 116° Southeast 471 542 39,000  Level Jacksonville Center
12:59AM 30.3142 -85.3325 117° Southeast 471 542 39,000 -300 Level Jacksonville Center
01:00AM 30.2561 -85.1917 115° Southeast 471 542 38,400 -840 Descending Jacksonville Center
01:01AM 30.1961 -85.0508 116° Southeast 471 542 37,400 -960 Descending Jacksonville Center
01:02AM 30.1378 -84.9150 116° Southeast 471 542 36,500 -720 Descending Jacksonville Center
01:03AM 30.0772 -84.7744 116° Southeast 471 542 36,000 -300 Descending Jacksonville Center
01:04AM 30.0208 -84.6367 115° Southeast 471 542 36,000  Level Jacksonville Center
01:05AM 29.9600 -84.4989 117° Southeast 471 542 36,000  Level Jacksonville Center
01:06AM 29.9011 -84.3614 116° Southeast 471 542 36,000  Level Jacksonville Center
01:07AM 29.8419 -84.2239 116° Southeast 471 542 36,000  Level Jacksonville Center
01:08AM 29.7889 -84.1036 117° Southeast 471 542 36,000  Level Jacksonville Center
01:09AM 29.7297 -83.9642 116° Southeast 471 542 36,000  Level Jacksonville Center
01:10AM 29.6681 -83.8272 117° Southeast 471 542 36,000  Level Jacksonville Center
01:11AM 29.6064 -83.6881 117° Southeast 476 548 36,000  Level Jacksonville Center
01:12AM 29.5444 -83.5492 117° Southeast 476 548 36,000  Level Jacksonville Center
01:13AM 29.4806 -83.4078 117° Southeast 481 554 36,000 -960 Level Jacksonville Center
01:14AM 29.4183 -83.2669 117° Southeast 488 562 34,100 -2,100 Descending Jacksonville Center
01:15AM 29.3561 -83.1283 117° Southeast 494 568 31,900 -2,160 Descending Jacksonville Center
01:16AM 29.2978 -82.9950 117° Southeast 488 562 29,800 -2,100 Descending Jacksonville Center
01:17AM 29.2414 -82.8639 116° Southeast 469 540 27,700 -2,100 Descending Jacksonville Center
01:18AM 29.1850 -82.7403 118° Southeast 446 513 25,700 -1,620 Descending Jacksonville Center
01:19AM 29.1306 -82.6217 118° Southeast 428 493 24,500 -1,560 Descending Jacksonville Center
01:20AM 29.0697 -82.4817 116° Southeast 428 493 22,600 -2,160 Descending Jacksonville Center
01:21AM 29.0150 -82.3656 118° Southeast 428 493 20,200 -2,340 Descending Jacksonville Center
01:22AM 28.9644 -82.2519 117° Southeast 415 478 18,000 -1,680 Descending Jacksonville Center
01:23AM 28.9200 -82.1525 117° Southeast 402 463 16,900 -720 Descending Jacksonville Center
01:24AM 28.8714 -82.0486 118° Southeast 385 443 16,600 -2,160 Descending Jacksonville Center
01:25AM 28.8206 -81.9353 117° Southeast 370 426 12,600 -3,240 Descending Jacksonville Center
01:26AM 28.7833 -81.8333 113° Southeast 380 437 10,500 -1,320 Descending Orlando TRACON
01:27AM 28.7333 -81.7500 124° Southeast 294 338 10,200 -1,020 Descending Orlando TRACON
01:28AM 28.7000 -81.6667 114° Southeast 296 341 8,500 -1,560 Descending Orlando TRACON
01:29AM 28.6667 -81.5833 114° Southeast 294 338 7,100 -1,440 Descending Orlando TRACON
01:30AM 28.6333 -81.5000 114° Southeast 266 306 5,600 -1,500 Descending Orlando TRACON
01:31AM 28.6000 -81.4167 114° Southeast 264 304 4,100 -1,380 Descending Orlando TRACON
01:32AM 28.5833 -81.3500 106° East 234 269 2,900 -900 Descending Orlando TRACON
01:33AM 28.5500 -81.3000 127° Southeast 189 217 2,400 -720 Descending Orlando TRACON
01:34AM 28.5000 -81.3000 180° South 154 177 1,500 -840 Descending Orlando TRACON
01:35AM 28.4667 -81.3000 180° South 121 139 800 -720 Descending Orlando TRACON
01:37AM 28.4294 -81.3090 124° Southeast  Level Estimated
01:44AM 28.4294 -81.3090 124° Southeast  Level Estimated
01:45AM 28.4294 -81.3090 124° Southeast  Level Estimated
01:46AM 28.4294 -81.3090 124° Southeast  Level Estimated
01:47AM 28.4294 -81.3090 124° Southeast  Level Estimated